Terminal Aerodrome Forecast
Issued by NWS

Home | Current Version | Previous Version | Text Only | Print | Product List | Glossary On
Versions: 1 2 3 4 5 6 7 8 9 10 11 12 13 14 15 16 17 18 19 20 21 22 23 24 25 26 27
108
FTUS44 KLIX 290521
TAFMCB
TAF
KMCB 290521Z 2906/3006 16005KT P6SM FEW015 SCT250
     FM290900 14005KT 3SM BR BKN015
     FM291100 14006KT 2SM BR OVC005
     FM291400 16008KT P6SM BKN025
     FM291500 16008KT P6SM BKN035
     FM300300 16010KT P6SM BKN015=

USA.gov is the U.S. government's official web portal to all federal, state and local government web resources and services.